Time;durP1;ratioP1;P1;durP2;ratioP2;P2;SDS_P1;SDS_P2;PMS_P1;PMS_P2;Temp;Humidity;BMP_temperature;BMP_pressure;BME280_temperature;BME280_humidity;BME280_pressure;Samples;Min_cycle;Max_cycle;Signal;HPM_P1;HPM_P2
2022/11/11 00:00:18;;;;;;;4.30;4.20;;;20.80;93.50;;;;;;5055687;28;20899;-51
2022/11/11 00:02:46;;;;;;;4.13;3.93;;;20.80;93.50;;;;;;5056848;28;20485;-50
2022/11/11 00:05:15;;;;;;;3.87;3.77;;;20.80;93.50;;;;;;5056208;28;20456;-52
2022/11/11 00:07:42;;;;;;;3.97;3.87;;;20.80;93.50;;;;;;5056265;28;20826;-59
2022/11/11 00:10:09;;;;;;;4.20;4.00;;;20.80;93.50;;;;;;5056204;28;20552;-51
2022/11/11 00:12:36;;;;;;;4.23;4.03;;;20.80;93.50;;;;;;5056553;28;20448;-54
2022/11/11 00:15:03;;;;;;;3.83;3.73;;;20.70;93.50;;;;;;5056546;28;20536;-51
2022/11/11 00:25:46;;;;;;;4.00;3.90;;;20.70;93.50;;;;;;5056279;28;20424;-53
2022/11/11 00:28:17;;;;;;;3.73;3.63;;;20.70;93.50;;;;;;5056323;28;20895;-52
2022/11/11 00:30:44;;;;;;;3.80;3.70;;;20.70;93.50;;;;;;5056920;28;20496;-51
2022/11/11 00:33:11;;;;;;;4.67;4.47;;;20.70;93.50;;;;;;5056917;28;20448;-55
2022/11/11 00:35:53;;;;;;;3.97;3.87;;;20.70;93.80;;;;;;5055754;28;20511;-63
2022/11/11 00:41:05;;;;;;;4.27;4.17;;;20.70;93.40;;;;;;5055594;28;20443;-55
2022/11/11 00:43:32;;;;;;;3.70;3.60;;;20.60;93.40;;;;;;5054578;28;21093;-50
2022/11/11 00:51:26;;;;;;;3.93;3.83;;;20.60;93.40;;;;;;5053350;28;20497;-52
2022/11/11 00:53:53;;;;;;;4.00;3.90;;;20.60;93.40;;;;;;5053293;28;20515;-57
2022/11/11 00:56:21;;;;;;;3.77;3.57;;;20.60;93.40;;;;;;5052860;28;20505;-51
2022/11/11 00:58:48;;;;;;;3.77;3.67;;;20.60;93.50;;;;;;5053388;28;20436;-51
2022/11/11 01:01:15;;;;;;;3.13;3.13;;;20.60;93.40;;;;;;5053054;28;20466;-51
2022/11/11 01:03:42;;;;;;;3.60;3.50;;;20.60;93.40;;;;;;5052992;28;20921;-52
2022/11/11 01:06:12;;;;;;;3.70;3.60;;;20.60;93.40;;;;;;5052552;28;20455;-60
2022/11/11 01:08:41;;;;;;;4.60;4.30;;;20.60;93.40;;;;;;5052559;28;20451;-50
2022/11/11 01:11:13;;;;;;;3.80;3.60;;;20.60;93.40;;;;;;5052799;28;20548;-56
2022/11/11 01:13:40;;;;;;;4.33;4.13;;;20.60;93.40;;;;;;5053080;28;20458;-53
2022/11/11 01:16:11;;;;;;;3.80;3.70;;;20.50;93.40;;;;;;5052709;28;20535;-51
2022/11/11 01:18:38;;;;;;;4.00;3.87;;;20.50;93.40;;;;;;5052781;28;20806;-55
2022/11/11 01:21:07;;;;;;;4.10;3.90;;;20.50;93.50;;;;;;5052822;28;20572;-51
2022/11/11 01:23:37;;;;;;;3.70;3.60;;;20.60;93.50;;;;;;5052299;28;20511;-51
2022/11/11 01:26:09;;;;;;;4.60;4.30;;;20.60;93.50;;;;;;5052672;28;20543;-51
2022/11/11 01:28:36;;;;;;;3.63;3.53;;;20.60;93.50;;;;;;5052926;28;20479;-50
2022/11/11 01:31:04;;;;;;;4.10;4.00;;;20.50;93.60;;;;;;5052938;28;20491;-52
2022/11/11 01:33:32;;;;;;;3.80;3.70;;;20.50;93.60;;;;;;5052462;28;20441;-56
2022/11/11 01:36:04;;;;;;;3.63;3.53;;;20.50;93.50;;;;;;5052568;28;20561;-52
2022/11/11 01:38:31;;;;;;;3.77;3.67;;;20.50;93.90;;;;;;5052771;28;20463;-53
2022/11/11 01:40:58;;;;;;;3.80;3.60;;;20.50;93.90;;;;;;5052303;28;20468;-54
2022/11/11 01:43:26;;;;;;;3.97;3.87;;;20.50;93.50;;;;;;5052730;28;21135;-57
2022/11/11 01:45:58;;;;;;;4.10;4.00;;;20.50;93.50;;;;;;5052158;28;20447;-56
2022/11/11 01:51:23;;;;;;;3.90;3.80;;;20.50;93.50;;;;;;5032904;28;20540;-54
2022/11/11 01:53:57;;;;;;;4.30;4.10;;;20.50;93.60;;;;;;5038050;28;20526;-52
2022/11/11 01:56:25;;;;;;;3.93;3.83;;;20.50;93.60;;;;;;5052065;28;20538;-54
2022/11/11 01:58:57;;;;;;;4.10;3.90;;;20.50;93.60;;;;;;5052111;28;20455;-54
2022/11/11 02:01:24;;;;;;;3.70;3.60;;;20.50;93.60;;;;;;5052049;28;20547;-53
2022/11/11 02:06:39;;;;;;;4.00;3.90;;;20.40;93.60;;;;;;5052035;28;20435;-53
2022/11/11 02:09:07;;;;;;;4.10;3.80;;;20.40;93.60;;;;;;5051910;28;20527;-56
2022/11/11 02:14:38;;;;;;;3.43;3.33;;;20.40;93.60;;;;;;5052133;28;20415;-52
2022/11/11 02:17:09;;;;;;;3.80;3.70;;;20.50;93.60;;;;;;5051949;28;20509;-60
2022/11/11 02:19:42;;;;;;;3.50;3.43;;;20.40;93.50;;;;;;5051903;28;20523;-55
2022/11/11 02:22:13;;;;;;;4.03;3.83;;;20.40;93.50;;;;;;5051851;28;20961;-54
2022/11/11 02:24:43;;;;;;;3.73;3.63;;;20.40;93.50;;;;;;5051959;28;20537;-56
2022/11/11 02:27:14;;;;;;;4.10;3.90;;;20.40;93.50;;;;;;5051611;28;20444;-60
2022/11/11 02:29:42;;;;;;;3.90;3.80;;;20.40;93.50;;;;;;5051858;28;20535;-52
2022/11/11 02:32:09;;;;;;;4.13;3.80;;;20.40;93.50;;;;;;5051719;28;20486;-50
2022/11/11 02:34:36;;;;;;;4.00;3.80;;;20.40;93.50;;;;;;5054893;28;20523;-58
2022/11/11 02:37:06;;;;;;;4.33;4.13;;;20.40;93.40;;;;;;5055982;28;20526;-53
2022/11/11 02:39:38;;;;;;;3.70;3.60;;;20.40;93.40;;;;;;5055631;28;20490;-50
2022/11/11 02:42:09;;;;;;;3.93;3.83;;;20.40;93.40;;;;;;5055391;28;20451;-52
2022/11/11 02:44:37;;;;;;;4.70;4.50;;;20.40;93.50;;;;;;5055677;28;20483;-51
2022/11/11 02:47:04;;;;;;;3.80;3.70;;;20.40;93.50;;;;;;5055381;28;20447;-52
2022/11/11 02:49:31;;;;;;;4.07;3.97;;;20.40;93.40;;;;;;5055596;28;20467;-57
2022/11/11 02:51:59;;;;;;;3.80;3.60;;;20.40;93.50;;;;;;5055222;28;20491;-58
2022/11/11 02:54:25;;;;;;;3.40;3.40;;;20.40;93.40;;;;;;5055552;28;20463;-51
2022/11/11 02:57:07;;;;;;;3.87;3.73;;;20.40;93.50;;;;;;5055020;28;20443;-56
2022/11/11 02:59:36;;;;;;;3.70;3.60;;;20.40;93.40;;;;;;5055387;28;20538;-50
2022/11/11 03:02:04;;;;;;;3.90;3.70;;;20.30;93.40;;;;;;5054903;28;20951;-52
2022/11/11 03:04:32;;;;;;;4.10;3.90;;;20.40;93.50;;;;;;5055357;28;20475;-57
2022/11/11 03:06:59;;;;;;;3.83;3.73;;;20.40;93.50;;;;;;5054876;28;20479;-50
2022/11/11 03:09:26;;;;;;;4.17;4.07;;;20.40;93.50;;;;;;5055348;28;20448;-53
2022/11/11 03:11:53;;;;;;;4.87;4.67;;;20.40;93.40;;;;;;5054934;28;20850;-53
2022/11/11 03:14:20;;;;;;;3.97;3.87;;;20.40;93.40;;;;;;5055074;28;20815;-61
2022/11/11 03:19:33;;;;;;;3.63;3.53;;;20.40;93.40;;;;;;5054967;28;20906;-60
2022/11/11 03:21:59;;;;;;;4.17;3.97;;;20.40;93.40;;;;;;5054472;28;21039;-61
2022/11/11 03:25:36;;;;;;;3.63;3.53;;;20.40;93.40;;;;;;5054364;28;20562;-57
2022/11/11 03:27:16;;;;;;;3.70;3.60;;;20.40;93.50;;;;;;5054400;28;20228;-56
2022/11/11 03:29:43;;;;;;;3.80;3.70;;;20.40;93.50;;;;;;5054795;28;20572;-56
2022/11/11 03:32:11;;;;;;;4.20;4.00;;;20.30;93.50;;;;;;5054560;28;20476;-55
2022/11/11 03:34:39;;;;;;;4.63;4.53;;;20.40;93.50;;;;;;5055423;28;20452;-51
2022/11/11 03:39:52;;;;;;;4.37;4.17;;;20.30;93.40;;;;;;5054885;28;20439;-54
2022/11/11 03:42:20;;;;;;;4.20;4.10;;;20.30;93.40;;;;;;5054178;28;20448;-52
2022/11/11 03:44:47;;;;;;;3.50;3.40;;;20.30;93.50;;;;;;5061840;28;20475;-57
2022/11/11 03:47:15;;;;;;;3.70;3.60;;;20.30;93.50;;;;;;5060843;28;20523;-63
2022/11/11 03:49:44;;;;;;;3.77;3.67;;;20.30;93.40;;;;;;5055758;28;20865;-60
2022/11/11 03:52:12;;;;;;;4.23;4.13;;;20.30;93.40;;;;;;5055169;28;20865;-63
2022/11/11 03:54:39;;;;;;;4.50;4.30;;;20.30;93.50;;;;;;5056085;28;20523;-62
2022/11/11 03:59:50;;;;;;;4.00;3.90;;;20.30;93.40;;;;;;5054339;28;20420;-61
2022/11/11 04:10:46;;;;;;;3.90;3.70;;;20.20;93.40;;;;;;4993589;28;21059;-57
2022/11/11 04:16:06;;;;;;;4.07;3.97;;;20.20;93.40;;;;;;5072672;28;20476;-58
2022/11/11 04:25:47;;;;;;;3.70;3.60;;;20.20;93.40;;;;;;5072754;28;20507;-60
2022/11/11 04:26:56;;;;;;;4.73;4.53;;;20.20;93.30;;;;;;5073530;28;20532;-61
2022/11/11 04:29:29;;;;;;;4.10;4.00;;;20.20;93.40;;;;;;5067390;28;20501;-57
2022/11/11 04:34:46;;;;;;;3.90;3.80;;;20.20;93.30;;;;;;5057769;28;20699;-61
2022/11/11 04:37:13;;;;;;;4.07;3.97;;;20.20;93.30;;;;;;5057045;28;20459;-61
2022/11/11 04:42:25;;;;;;;4.20;3.90;;;20.20;93.30;;;;;;5057865;28;20465;-60
2022/11/11 04:47:37;;;;;;;3.70;3.57;;;20.20;93.30;;;;;;5057259;28;20420;-57
2022/11/11 04:50:07;;;;;;;3.67;3.53;;;20.20;93.30;;;;;;5057305;28;20528;-60
2022/11/11 04:52:33;;;;;;;3.60;3.50;;;20.20;93.30;;;;;;5057183;28;20879;-61
2022/11/11 04:57:47;;;;;;;3.57;3.47;;;20.20;93.30;;;;;;5057456;28;20439;-63
2022/11/11 05:00:16;;;;;;;3.90;3.63;;;20.20;93.30;;;;;;5057544;28;20492;-60
2022/11/11 05:08:54;;;;;;;3.83;3.73;;;20.20;93.60;;;;;;5066702;28;20478;-57
2022/11/11 05:11:03;;;;;;;3.60;3.50;;;20.40;93.30;;;;;;5067786;28;20890;-59
2022/11/11 05:21:52;;;;;;;4.00;3.90;;;20.50;93.20;;;;;;5067351;28;20495;-56
2022/11/11 05:27:03;;;;;;;3.87;3.77;;;20.50;93.20;;;;;;5066173;28;20443;-59
2022/11/11 05:29:30;;;;;;;5.07;4.67;;;20.50;93.20;;;;;;5066911;28;20474;-55
2022/11/11 05:31:57;;;;;;;4.30;4.07;;;20.50;93.30;;;;;;5067836;28;20978;-59
2022/11/11 05:34:24;;;;;;;5.63;5.20;;;20.50;93.30;;;;;;5067036;28;20456;-60
2022/11/11 05:36:53;;;;;;;5.80;5.40;;;20.50;93.40;;;;;;5066208;28;20456;-57
2022/11/11 05:39:20;;;;;;;5.97;5.40;;;20.50;93.90;;;;;;5066558;28;20487;-62
2022/11/11 05:41:47;;;;;;;6.73;6.13;;;20.50;93.90;;;;;;5055558;28;20466;-59
2022/11/11 05:44:14;;;;;;;9.47;6.77;;;20.50;97.70;;;;;;5054689;28;20510;-57
2022/11/11 05:46:41;;;;;;;7.10;6.40;;;20.60;98.30;;;;;;5054518;28;20450;-57
2022/11/11 05:49:17;;;;;;;14.07;6.60;;;20.60;99.20;;;;;;5053581;28;20945;-64
2022/11/11 05:51:44;;;;;;;6.50;6.00;;;20.70;98.80;;;;;;5052476;28;20336;-55
2022/11/11 05:54:13;;;;;;;6.87;6.13;;;20.80;98.70;;;;;;5053176;28;20482;-62
2022/11/11 05:56:40;;;;;;;6.60;5.83;;;20.90;98.20;;;;;;5053720;28;20523;-60
2022/11/11 05:59:09;;;;;;;6.17;4.80;;;21.00;98.00;;;;;;5039995;28;20503;-57
2022/11/11 06:01:37;;;;;;;6.30;5.40;;;21.00;97.20;;;;;;5050379;28;20535;-58
2022/11/11 06:04:05;;;;;;;8.60;5.80;;;21.10;97.90;;;;;;5055035;28;20452;-58
2022/11/11 06:06:33;;;;;;;7.80;5.93;;;21.10;97.90;;;;;;5055371;28;20448;-52
2022/11/11 06:08:59;;;;;;;9.93;5.97;;;21.10;98.00;;;;;;5055369;28;20528;-56
2022/11/11 06:11:30;;;;;;;7.60;6.40;;;21.10;98.40;;;;;;5053384;28;20554;-61
2022/11/11 06:14:00;;;;;;;8.43;7.50;;;21.10;98.20;;;;;;5051274;28;20443;-58
2022/11/11 06:16:28;;;;;;;6.57;5.97;;;21.20;98.40;;;;;;5051451;28;20447;-57
2022/11/11 06:18:54;;;;;;;6.53;5.70;;;21.20;97.90;;;;;;5051453;28;20539;-59
2022/11/11 06:21:22;;;;;;;7.13;5.63;;;21.20;97.90;;;;;;5051374;28;20562;-60
2022/11/11 06:23:48;;;;;;;8.70;6.13;;;21.30;97.20;;;;;;5051323;28;20448;-58
2022/11/11 06:26:15;;;;;;;6.17;5.57;;;21.40;96.70;;;;;;5050619;28;20562;-60
2022/11/11 06:28:45;;;;;;;8.77;5.60;;;21.40;96.20;;;;;;5051189;28;20472;-58
2022/11/11 06:31:14;;;;;;;10.00;6.20;;;21.40;96.50;;;;;;5035413;28;20529;-58
2022/11/11 06:33:42;;;;;;;6.77;5.67;;;21.30;95.90;;;;;;5050984;28;20448;-60
2022/11/11 06:36:11;;;;;;;10.00;6.90;;;21.20;93.50;;;;;;5050962;28;21047;-55
2022/11/11 06:38:37;;;;;;;7.37;6.70;;;21.20;91.90;;;;;;5050664;28;20452;-62
2022/11/11 06:41:05;;;;;;;6.60;6.10;;;21.10;90.60;;;;;;5050433;28;20504;-60
2022/11/11 06:43:31;;;;;;;8.33;6.40;;;21.10;88.20;;;;;;5050960;28;20448;-62
2022/11/11 06:46:00;;;;;;;6.53;6.13;;;21.10;87.40;;;;;;5051185;28;20479;-62
2022/11/11 06:48:28;;;;;;;5.70;5.20;;;21.20;90.10;;;;;;5051202;28;20472;-63
2022/11/11 06:51:00;;;;;;;6.70;6.20;;;21.20;90.80;;;;;;5051448;28;20538;-63
2022/11/11 06:53:28;;;;;;;6.53;6.07;;;21.30;91.20;;;;;;5050840;28;20459;-63
2022/11/11 06:55:55;;;;;;;6.83;6.40;;;21.30;91.40;;;;;;5050496;28;20455;-64
2022/11/11 06:58:22;;;;;;;4.90;4.50;;;21.30;91.60;;;;;;5051405;28;20440;-64
2022/11/11 07:00:50;;;;;;;5.67;5.27;;;21.30;91.50;;;;;;5050985;28;20515;-63
2022/11/11 07:03:20;;;;;;;5.30;5.00;;;21.40;91.60;;;;;;5051824;28;20548;-62
2022/11/11 07:05:47;;;;;;;6.30;5.77;;;21.40;91.50;;;;;;5051222;28;20494;-62
2022/11/11 07:08:16;;;;;;;5.80;5.40;;;21.50;91.40;;;;;;5051206;28;20456;-60
2022/11/11 07:10:45;;;;;;;7.83;5.37;;;21.50;91.40;;;;;;5050619;28;20547;-59
2022/11/11 07:13:12;;;;;;;6.20;4.90;;;21.50;91.20;;;;;;5051772;28;20528;-63
2022/11/11 07:15:39;;;;;;;5.00;4.70;;;21.50;91.00;;;;;;5051090;28;20471;-62
2022/11/11 07:18:06;;;;;;;6.00;5.67;;;21.60;91.70;;;;;;5050472;28;20456;-59
2022/11/11 07:20:36;;;;;;;5.57;5.07;;;21.60;91.90;;;;;;5051674;28;20476;-60
2022/11/11 07:23:03;;;;;;;5.43;5.23;;;21.60;91.70;;;;;;5054679;28;20455;-63
2022/11/11 07:25:29;;;;;;;6.07;5.77;;;21.60;91.40;;;;;;5054162;28;20502;-61
2022/11/11 07:27:56;;;;;;;5.57;5.37;;;21.60;91.20;;;;;;5053665;28;20506;-61
2022/11/11 07:30:23;;;;;;;6.60;6.10;;;21.60;90.90;;;;;;5054443;28;20464;-59
2022/11/11 07:32:52;;;;;;;5.07;4.80;;;21.60;90.80;;;;;;5054111;28;20440;-61
2022/11/11 07:35:20;;;;;;;6.30;6.00;;;21.70;90.70;;;;;;5054610;28;20444;-62
2022/11/11 07:37:49;;;;;;;6.10;5.70;;;21.70;91.40;;;;;;5054665;28;20525;-59
2022/11/11 07:40:17;;;;;;;6.07;5.57;;;21.70;91.30;;;;;;5054623;28;20472;-59
2022/11/11 07:42:45;;;;;;;5.60;5.10;;;21.70;91.30;;;;;;5054375;28;20523;-62
2022/11/11 07:45:13;;;;;;;5.63;5.33;;;21.70;91.20;;;;;;5054267;28;20866;-62
2022/11/11 07:47:43;;;;;;;5.30;5.10;;;21.70;91.30;;;;;;5053902;28;20479;-60
2022/11/11 07:50:11;;;;;;;4.53;4.40;;;21.70;91.60;;;;;;5054023;28;20548;-62
2022/11/11 07:52:37;;;;;;;5.73;5.13;;;21.70;91.70;;;;;;5054237;28;20472;-62
2022/11/11 07:55:07;;;;;;;5.60;5.10;;;21.70;92.00;;;;;;5053725;28;20869;-61
2022/11/11 07:57:34;;;;;;;8.50;5.30;;;21.70;92.40;;;;;;5053426;28;20448;-62
2022/11/11 08:00:01;;;;;;;6.83;6.30;;;21.70;91.60;;;;;;5053299;28;20472;-60
2022/11/11 08:02:28;;;;;;;5.83;5.53;;;21.70;91.30;;;;;;5053373;28;20958;-59
2022/11/11 08:04:55;;;;;;;6.00;5.50;;;21.70;91.40;;;;;;5053199;28;20480;-63
2022/11/11 08:07:22;;;;;;;5.77;5.13;;;21.70;91.30;;;;;;5053624;28;20456;-63
2022/11/11 08:09:50;;;;;;;5.30;4.90;;;21.70;91.10;;;;;;5053758;28;20494;-63
2022/11/11 08:15:17;;;;;;;6.20;5.50;;;21.70;91.00;;;;;;4987486;28;20427;-61
2022/11/11 08:17:44;;;;;;;6.70;5.33;;;21.80;91.40;;;;;;4982500;28;20442;-62
2022/11/11 08:20:12;;;;;;;5.60;5.20;;;21.70;89.80;;;;;;5013346;28;20483;-61
2022/11/11 08:22:40;;;;;;;8.03;5.80;;;21.70;88.90;;;;;;5053345;28;20498;-62
2022/11/11 08:25:09;;;;;;;9.10;5.80;;;21.70;90.80;;;;;;5053091;28;20523;-60
2022/11/11 08:27:38;;;;;;;5.63;5.17;;;21.70;91.10;;;;;;5052612;28;20898;-60
2022/11/11 08:30:07;;;;;;;4.97;4.60;;;21.60;91.10;;;;;;5052913;28;20530;-62
2022/11/11 08:32:34;;;;;;;5.70;5.20;;;21.60;91.30;;;;;;5052819;28;20549;-62
2022/11/11 08:35:01;;;;;;;5.30;5.00;;;21.60;90.90;;;;;;5052989;28;20446;-59
2022/11/11 08:37:29;;;;;;;5.57;5.10;;;21.60;90.90;;;;;;5052593;28;20487;-62
2022/11/11 08:39:56;;;;;;;5.23;4.83;;;21.70;90.80;;;;;;5052652;28;20469;-62
2022/11/11 08:42:23;;;;;;;5.07;4.97;;;21.70;90.80;;;;;;5052699;28;20478;-61
2022/11/11 08:44:51;;;;;;;5.27;5.07;;;21.70;90.80;;;;;;5052445;28;20448;-62
2022/11/11 08:47:19;;;;;;;5.90;5.40;;;21.70;90.80;;;;;;5052619;28;20793;-62
2022/11/11 08:49:48;;;;;;;5.20;4.90;;;21.70;90.70;;;;;;5052512;28;20448;-58
2022/11/11 08:52:15;;;;;;;5.30;5.00;;;21.60;90.60;;;;;;5052510;28;20976;-60
2022/11/11 08:54:42;;;;;;;5.37;5.17;;;21.70;90.70;;;;;;5052502;28;20455;-61
2022/11/11 08:57:08;;;;;;;5.53;4.60;;;21.70;90.90;;;;;;5051673;28;20483;-63
2022/11/11 08:59:35;;;;;;;5.53;4.90;;;21.70;91.00;;;;;;5052474;28;20479;-56
2022/11/11 09:02:03;;;;;;;4.87;4.53;;;21.60;91.40;;;;;;5053818;28;20448;-58
2022/11/11 09:04:30;;;;;;;5.47;5.13;;;21.60;91.50;;;;;;5053192;28;20811;-57
2022/11/11 09:06:57;;;;;;;5.93;5.63;;;21.60;91.60;;;;;;5052263;28;20486;-61
2022/11/11 09:09:24;;;;;;;4.70;4.50;;;21.50;91.50;;;;;;5052384;28;20514;-57
2022/11/11 09:11:51;;;;;;;5.03;4.63;;;21.50;91.50;;;;;;5052173;28;20896;-58
2022/11/11 09:14:18;;;;;;;4.80;4.60;;;21.50;91.70;;;;;;5052298;28;20535;-60
2022/11/11 09:16:45;;;;;;;5.67;5.47;;;21.40;91.50;;;;;;5052171;28;20870;-61
2022/11/11 09:19:13;;;;;;;5.23;5.03;;;21.40;91.60;;;;;;5052330;28;20447;-60
2022/11/11 09:21:40;;;;;;;5.57;5.27;;;21.30;91.70;;;;;;5052016;28;20563;-61
2022/11/11 09:24:07;;;;;;;5.40;5.20;;;21.30;91.90;;;;;;5052433;28;20858;-58
2022/11/11 09:26:33;;;;;;;5.73;4.87;;;21.20;91.60;;;;;;5052635;28;21068;-61
2022/11/11 09:29:00;;;;;;;5.03;4.63;;;21.20;91.90;;;;;;5054853;28;20531;-58
2022/11/11 09:31:27;;;;;;;4.93;4.73;;;21.20;91.60;;;;;;5053142;28;20475;-59
2022/11/11 09:33:54;;;;;;;4.27;4.17;;;21.10;91.50;;;;;;5053328;28;20548;-60
2022/11/11 09:36:22;;;;;;;4.70;4.50;;;21.10;91.50;;;;;;5054595;28;20532;-60
2022/11/11 09:38:49;;;;;;;4.60;4.40;;;21.10;91.60;;;;;;5058517;28;20448;-58
2022/11/11 09:41:21;;;;;;;5.10;4.63;;;21.00;91.50;;;;;;5054498;28;21019;-60
2022/11/11 09:43:55;;;;;;;4.30;4.20;;;21.00;91.50;;;;;;5056678;28;20519;-55
2022/11/11 09:46:33;;;;;;;4.40;4.30;;;21.00;91.50;;;;;;5055398;28;20483;-59
2022/11/11 09:49:27;;;;;;;4.43;4.33;;;21.00;91.50;;;;;;5053359;28;20460;-58
2022/11/11 09:52:02;;;;;;;4.70;4.50;;;21.00;91.50;;;;;;5053699;28;20987;-59
2022/11/11 09:54:35;;;;;;;4.60;4.50;;;20.90;91.50;;;;;;5052279;28;20475;-60
2022/11/11 09:57:08;;;;;;;5.60;5.33;;;20.90;91.50;;;;;;5053116;28;20452;-59
2022/11/11 09:59:42;;;;;;;5.47;5.10;;;20.90;91.60;;;;;;5052607;28;20480;-60
2022/11/11 10:02:19;;;;;;;4.63;4.53;;;20.90;91.60;;;;;;5052225;28;20444;-56
2022/11/11 10:04:55;;;;;;;4.80;4.60;;;20.90;91.60;;;;;;5053181;28;20543;-60
2022/11/11 10:07:31;;;;;;;5.23;5.03;;;20.90;91.70;;;;;;5051515;28;20443;-59
2022/11/11 10:10:06;;;;;;;4.63;4.53;;;20.90;91.70;;;;;;5051431;28;20497;-58
2022/11/11 10:12:38;;;;;;;4.83;4.63;;;20.80;91.70;;;;;;5052744;28;20443;-59
2022/11/11 10:15:11;;;;;;;4.40;4.30;;;20.80;91.70;;;;;;5052967;28;20999;-58
2022/11/11 10:17:46;;;;;;;4.30;4.20;;;20.80;91.70;;;;;;5052531;28;20456;-55
2022/11/11 10:20:20;;;;;;;5.27;4.97;;;20.80;91.70;;;;;;5052450;28;20475;-58
2022/11/11 10:22:53;;;;;;;4.53;4.43;;;20.80;91.70;;;;;;5052362;28;20920;-59
2022/11/11 10:25:22;;;;;;;4.90;4.63;;;20.70;91.70;;;;;;5052476;28;20530;-56
2022/11/11 10:27:53;;;;;;;4.50;4.30;;;20.70;91.70;;;;;;5052192;28;20479;-59
2022/11/11 10:30:23;;;;;;;4.40;4.30;;;20.70;91.80;;;;;;5052184;28;20888;-58
2022/11/11 10:32:57;;;;;;;4.50;4.40;;;20.70;91.80;;;;;;5051335;28;20509;-58
2022/11/11 10:35:26;;;;;;;4.47;4.27;;;20.70;91.80;;;;;;5052252;28;20511;-53
2022/11/11 10:38:04;;;;;;;4.60;4.40;;;20.70;91.80;;;;;;5052119;28;20448;-54
2022/11/11 10:40:39;;;;;;;4.47;4.17;;;20.70;91.90;;;;;;5052573;28;20464;-56
2022/11/11 10:43:19;;;;;;;4.00;3.90;;;20.70;91.90;;;;;;5052161;28;20811;-54
2022/11/11 10:45:52;;;;;;;5.00;4.70;;;20.60;91.80;;;;;;5051853;28;20507;-51
2022/11/11 10:48:24;;;;;;;4.17;4.07;;;20.60;91.80;;;;;;5051000;28;20491;-52
2022/11/11 10:50:57;;;;;;;4.53;4.43;;;20.60;91.80;;;;;;5052208;28;20542;-50
2022/11/11 10:53:34;;;;;;;4.27;4.07;;;20.60;91.80;;;;;;5052275;28;20530;-52
2022/11/11 10:56:09;;;;;;;4.47;4.27;;;20.60;91.80;;;;;;5054208;28;20443;-57
2022/11/11 10:58:41;;;;;;;4.10;4.00;;;20.60;91.90;;;;;;5054830;28;20443;-55
2022/11/11 11:01:12;;;;;;;4.33;4.23;;;20.60;91.90;;;;;;5055518;28;20555;-51
2022/11/11 11:03:45;;;;;;;4.57;4.47;;;20.60;91.90;;;;;;5056103;28;20532;-60
2022/11/11 11:06:16;;;;;;;4.43;4.33;;;20.50;91.90;;;;;;5069770;28;20522;-59
2022/11/11 11:08:49;;;;;;;4.50;4.40;;;20.50;91.90;;;;;;5071428;28;20501;-60
2022/11/11 11:11:20;;;;;;;4.43;4.23;;;20.60;91.90;;;;;;5060688;28;20498;-58
2022/11/11 11:13:52;;;;;;;4.60;4.40;;;20.50;91.90;;;;;;5055302;28;21019;-59
2022/11/11 11:16:23;;;;;;;4.50;4.40;;;20.50;91.90;;;;;;5056012;28;20444;-50
2022/11/11 11:19:19;;;;;;;4.03;3.93;;;20.50;91.90;;;;;;5055426;28;20475;-56
2022/11/11 11:21:51;;;;;;;4.30;4.20;;;20.50;91.90;;;;;;5053968;28;21002;-51
2022/11/11 11:24:24;;;;;;;4.53;4.40;;;20.50;91.90;;;;;;5055921;28;20437;-55
2022/11/11 11:26:53;;;;;;;5.03;4.83;;;20.50;91.90;;;;;;5060232;28;20526;-64
2022/11/11 11:29:32;;;;;;;4.30;4.20;;;20.50;91.90;;;;;;5063102;28;20451;-61
2022/11/11 11:32:14;;;;;;;4.67;4.47;;;20.50;91.90;;;;;;5066329;28;20448;-63
2022/11/11 11:34:48;;;;;;;4.40;4.30;;;20.50;92.20;;;;;;5065338;28;20475;-62
2022/11/11 11:37:15;;;;;;;4.53;4.30;;;20.50;91.80;;;;;;5062589;28;20504;-60
2022/11/11 11:39:44;;;;;;;4.57;4.17;;;20.50;91.80;;;;;;5056987;28;20512;-53
2022/11/11 11:42:28;;;;;;;4.23;4.13;;;20.50;91.80;;;;;;5055532;28;20480;-52
2022/11/11 11:44:55;;;;;;;4.47;4.37;;;20.50;91.80;;;;;;5055658;28;20811;-51
2022/11/11 11:47:40;;;;;;;3.90;3.70;;;20.50;91.70;;;;;;5055964;28;20488;-50
2022/11/11 11:50:29;;;;;;;4.10;4.00;;;20.50;91.70;;;;;;5055748;28;20568;-56
2022/11/11 11:53:08;;;;;;;4.00;3.90;;;20.50;91.70;;;;;;5055787;28;20446;-56
2022/11/11 11:55:39;;;;;;;3.90;3.80;;;20.60;91.70;;;;;;5056197;28;20862;-50
2022/11/11 11:58:33;;;;;;;5.17;5.00;;;20.60;91.70;;;;;;5063239;28;20531;-59
2022/11/11 12:01:04;;;;;;;4.40;4.30;;;20.60;91.70;;;;;;5053468;28;20551;-51
2022/11/11 12:03:54;;;;;;;4.80;4.70;;;20.60;91.70;;;;;;5056257;28;20868;-54
2022/11/11 12:06:32;;;;;;;3.90;3.80;;;20.60;91.60;;;;;;5054767;28;20999;-51
2022/11/11 12:09:15;;;;;;;4.80;4.60;;;20.60;91.60;;;;;;5055651;28;20527;-54
2022/11/11 12:11:56;;;;;;;4.27;4.07;;;20.60;91.60;;;;;;5055160;28;20870;-52
2022/11/11 12:14:55;;;;;;;4.10;4.00;;;20.60;91.50;;;;;;5055124;28;20527;-51
2022/11/11 12:17:32;;;;;;;4.47;4.27;;;20.60;91.50;;;;;;5053767;28;21006;-53
2022/11/11 12:20:11;;;;;;;4.37;4.27;;;20.60;91.40;;;;;;5054079;28;20503;-54
2022/11/11 12:22:53;;;;;;;3.87;3.77;;;20.60;91.40;;;;;;5053841;28;20443;-56
2022/11/11 12:25:29;;;;;;;4.40;4.20;;;20.60;91.40;;;;;;5055120;28;20494;-50
2022/11/11 12:28:10;;;;;;;4.60;4.30;;;20.60;91.40;;;;;;5053854;28;21012;-53
2022/11/11 12:30:41;;;;;;;4.37;4.27;;;20.60;91.30;;;;;;5054929;28;20838;-58
2022/11/11 12:33:41;;;;;;;4.53;4.43;;;20.60;91.30;;;;;;5053428;28;20979;-53
2022/11/11 12:36:13;;;;;;;4.13;4.03;;;20.60;91.30;;;;;;5053748;28;20873;-55
2022/11/11 12:38:58;;;;;;;4.70;4.60;;;20.60;91.30;;;;;;5053803;28;20552;-50
2022/11/11 12:41:44;;;;;;;4.00;3.90;;;20.60;91.30;;;;;;5054668;28;20464;-52
2022/11/11 12:44:13;;;;;;;4.00;3.80;;;20.60;91.30;;;;;;5055045;28;20797;-53
2022/11/11 12:46:52;;;;;;;4.20;4.10;;;20.60;91.30;;;;;;5054916;28;20574;-50
2022/11/11 12:49:41;;;;;;;3.93;3.83;;;20.60;91.30;;;;;;5054974;28;20448;-51
2022/11/11 12:52:21;;;;;;;4.27;4.17;;;20.60;91.30;;;;;;5055282;28;20458;-50
2022/11/11 12:55:01;;;;;;;4.43;4.33;;;20.60;91.30;;;;;;5054953;28;21026;-52
2022/11/11 12:57:36;;;;;;;4.07;3.97;;;20.60;91.30;;;;;;5054992;28;20462;-53
2022/11/11 13:00:12;;;;;;;4.23;4.00;;;20.60;91.30;;;;;;5055613;28;20470;-56
2022/11/11 13:03:00;;;;;;;3.90;3.90;;;20.60;91.30;;;;;;5055302;28;20444;-54
2022/11/11 13:05:31;;;;;;;4.17;4.07;;;20.70;91.30;;;;;;5054308;28;20542;-55
2022/11/11 13:08:22;;;;;;;4.10;4.00;;;20.70;91.30;;;;;;5054107;28;20548;-53
2022/11/11 13:10:58;;;;;;;3.70;3.60;;;20.70;91.30;;;;;;5052935;28;20467;-60
2022/11/11 13:13:47;;;;;;;4.07;3.97;;;20.70;91.30;;;;;;5065544;28;20463;-56
2022/11/11 13:16:23;;;;;;;4.10;4.00;;;20.70;91.30;;;;;;5066726;28;20437;-61
2022/11/11 13:18:55;;;;;;;4.10;3.93;;;20.60;91.20;;;;;;5064372;28;20474;-61
2022/11/11 13:21:26;;;;;;;4.33;4.23;;;20.70;91.30;;;;;;5062048;28;20832;-55
2022/11/11 13:23:53;;;;;;;4.10;4.00;;;20.70;91.20;;;;;;5053280;28;20498;-57
2022/11/11 13:26:32;;;;;;;4.30;4.20;;;20.70;91.20;;;;;;5053146;28;20484;-52
2022/11/11 13:29:18;;;;;;;4.70;4.50;;;20.70;91.50;;;;;;5054298;28;20999;-55
2022/11/11 13:31:49;;;;;;;4.53;4.43;;;20.70;91.20;;;;;;5053509;28;20460;-54
2022/11/11 13:34:17;;;;;;;4.40;4.30;;;20.70;91.10;;;;;;5052237;28;20531;-54
2022/11/11 13:36:48;;;;;;;4.10;4.10;;;20.70;91.10;;;;;;5053204;28;20468;-52
2022/11/11 13:39:28;;;;;;;4.20;4.10;;;20.70;91.00;;;;;;5053893;28;20531;-51
2022/11/11 13:41:57;;;;;;;4.43;4.17;;;20.70;91.00;;;;;;5053682;28;20543;-55
2022/11/11 13:44:29;;;;;;;3.90;3.90;;;20.80;91.00;;;;;;5053643;28;20448;-52
2022/11/11 13:47:03;;;;;;;4.07;3.97;;;20.80;91.00;;;;;;5052857;28;20558;-60
2022/11/11 13:49:36;;;;;;;3.93;3.83;;;20.80;91.00;;;;;;5053339;28;20448;-57
2022/11/11 13:52:05;;;;;;;4.00;3.90;;;20.80;90.90;;;;;;5053165;28;20551;-61
2022/11/11 13:54:35;;;;;;;3.77;3.70;;;20.80;90.90;;;;;;5053104;28;20455;-61
2022/11/11 13:57:07;;;;;;;3.90;3.80;;;20.80;90.90;;;;;;5053013;28;20460;-58
2022/11/11 13:59:38;;;;;;;4.23;4.10;;;20.80;90.90;;;;;;5052776;28;20455;-61
2022/11/11 14:02:28;;;;;;;4.00;3.90;;;20.80;90.80;;;;;;5052424;28;20527;-58
2022/11/11 14:05:32;;;;;;;4.10;4.00;;;20.80;90.80;;;;;;5052750;28;20444;-58
2022/11/11 14:07:59;;;;;;;3.80;3.80;;;20.80;90.80;;;;;;5052545;28;21050;-59
2022/11/11 14:10:50;;;;;;;4.33;4.23;;;20.80;90.90;;;;;;5051739;28;20542;-59
2022/11/11 14:13:37;;;;;;;4.10;4.00;;;20.80;90.90;;;;;;5051782;28;20461;-61
2022/11/11 14:16:05;;;;;;;4.00;3.90;;;20.80;91.00;;;;;;5052379;28;20491;-56
2022/11/11 14:18:45;;;;;;;4.70;4.60;;;20.80;91.00;;;;;;5051921;28;20459;-61
2022/11/11 14:21:53;;;;;;;3.77;3.70;;;20.80;91.40;;;;;;5051707;28;20475;-60
2022/11/11 14:24:29;;;;;;;3.90;3.90;;;20.80;91.10;;;;;;5044528;28;20460;-60
2022/11/11 14:27:00;;;;;;;3.97;3.87;;;20.80;91.20;;;;;;5051135;28;20582;-59